Terminal Aerodrome Forecast
Issued by NWS

Home | Current Version | Previous Version | Text Only | Print | Product List | Glossary On
Versions: 1 2 3 4 5 6 7 8 9 10 11 12 13 14 15 16 17 18 19 20 21 22 23 24
000
FTUS41 KCAR 281726
TAFBHB
TAF
KBHB 281726Z 2818/2918 02012G20KT 6SM -SN OVC035
      TEMPO 2818/2822 3SM -SN OVC025
     FM282300 36010G18KT P6SM BKN050 OVC100
     FM290400 34008KT P6SM SCT120 BKN220
     FM291000 VRB03KT P6SM SCT250
     FM291600 28007KT P6SM SKC
      AMD LTD TO CLD VIS AND WIND=

USA.gov is the U.S. government's official web portal to all federal, state and local government web resources and services.